Time;durP1;ratioP1;P1;durP2;ratioP2;P2;SDS_P1;SDS_P2;PMS_P1;PMS_P2;Temp;Humidity;BMP_temperature;BMP_pressure;BME280_temperature;BME280_humidity;BME280_pressure;Samples;Min_cycle;Max_cycle;Signal;HPM_P1;HPM_P2
2023/04/27 08:05:39;;;;;;;9.93;6.10;;;;;;;7.66;74.34;101902.50;5063413;28;20928;-72
2023/04/27 08:08:05;;;;;;;14.82;6.40;;;;;;;7.73;75.91;101909.66;5063956;28;20040;-69
2023/04/27 08:10:30;;;;;;;12.90;6.75;;;;;;;7.80;74.74;101899.00;5048626;28;20032;-70
2023/04/27 08:12:55;;;;;;;11.15;7.05;;;;;;;7.92;73.23;101892.16;5049248;28;20041;-70
2023/04/27 08:15:20;;;;;;;16.27;7.25;;;;;;;8.03;74.64;101898.97;5047510;28;20468;-70
2023/04/27 08:17:47;;;;;;;13.65;6.13;;;;;;;8.10;73.33;101909.84;5045990;28;20032;-70
2023/04/27 08:20:12;;;;;;;12.85;6.30;;;;;;;8.17;69.63;101908.13;5048433;28;20064;-70
2023/04/27 08:22:41;;;;;;;14.30;6.30;;;;;;;8.26;69.68;101912.41;5049287;28;20501;-70
2023/04/27 08:25:08;;;;;;;14.48;5.82;;;;;;;8.33;68.01;101902.56;5048695;28;20420;-70
2023/04/27 08:27:37;;;;;;;9.00;5.00;;;;;;;8.40;66.65;101904.53;5048945;28;20036;-71
2023/04/27 08:30:02;;;;;;;7.95;4.60;;;;;;;8.46;64.33;101898.41;5049202;28;20386;-71
2023/04/27 08:32:28;;;;;;;12.65;5.40;;;;;;;8.52;65.55;101886.88;5046895;28;20093;-72
2023/04/27 08:34:53;;;;;;;12.80;5.97;;;;;;;8.56;65.99;101879.25;5048882;28;20036;-71
2023/04/27 08:37:18;;;;;;;11.73;6.10;;;;;;;8.60;65.53;101872.47;5047613;28;20036;-71
2023/04/27 08:39:46;;;;;;;9.68;5.43;;;;;;;8.63;64.44;101872.91;5049397;28;20362;-71
2023/04/27 08:42:12;;;;;;;20.50;5.75;;;;;;;8.66;64.28;101869.84;5048442;28;20032;-71
2023/04/27 08:44:40;;;;;;;9.20;4.70;;;;;;;8.69;63.13;101872.16;5048870;28;20033;-70
2023/04/27 08:47:06;;;;;;;7.78;4.80;;;;;;;8.74;61.53;101873.47;5046352;28;20041;-71
2023/04/27 08:49:31;;;;;;;13.02;4.53;;;;;;;8.81;60.47;101879.78;5048490;28;20336;-71
2023/04/27 08:51:56;;;;;;;11.20;4.90;;;;;;;8.83;59.00;101872.34;5047352;28;20495;-70
2023/04/27 08:54:21;;;;;;;7.95;5.05;;;;;;;8.89;60.64;101876.97;5048660;28;20037;-71
2023/04/27 08:56:47;;;;;;;8.40;4.60;;;;;;;8.93;58.55;101883.69;5046765;28;20069;-70
2023/04/27 08:59:13;;;;;;;7.40;4.25;;;;;;;8.99;58.99;101879.41;5047914;28;20037;-70
2023/04/27 09:01:49;;;;;;;10.75;4.53;;;;;;;9.05;61.23;101876.75;5044107;28;20513;-71
2023/04/27 09:04:19;;;;;;;9.82;4.75;;;;;;;9.14;58.88;101874.78;5045452;28;20056;-78
2023/04/27 09:06:45;;;;;;;9.73;4.80;;;;;;;9.27;60.12;101876.81;5048458;28;20043;-71
2023/04/27 09:09:21;;;;;;;7.05;4.03;;;;;;;9.38;57.95;101881.72;5047266;28;20465;-70
2023/04/27 09:11:48;;;;;;;8.95;4.45;;;;;;;9.44;55.63;101869.31;5046999;28;20045;-76
2023/04/27 09:14:20;;;;;;;7.22;3.90;;;;;;;9.60;55.82;101880.88;5048036;28;20033;-71
2023/04/27 09:16:54;;;;;;;9.68;4.15;;;;;;;9.66;56.77;101880.97;5034469;28;20092;-70
2023/04/27 09:19:24;;;;;;;6.10;4.20;;;;;;;9.74;54.32;101875.41;5034663;28;20033;-71
2023/04/27 09:21:50;;;;;;;9.40;4.30;;;;;;;9.82;56.09;101879.00;5034550;28;20029;-74
2023/04/27 09:24:15;;;;;;;8.25;4.10;;;;;;;9.79;52.47;101877.53;5034028;28;20037;-71
2023/04/27 09:26:48;;;;;;;9.35;4.15;;;;;;;9.83;54.86;101872.56;5034792;28;20033;-70
2023/04/27 09:29:14;;;;;;;7.13;3.97;;;;;;;9.87;54.02;101869.28;5022216;28;20022;-70
2023/04/27 09:31:39;;;;;;;6.25;4.22;;;;;;;10.00;56.01;101863.16;5025804;28;20037;-70
2023/04/27 09:34:05;;;;;;;10.40;4.05;;;;;;;10.14;54.48;101868.66;5034480;28;20065;-71
2023/04/27 09:36:31;;;;;;;5.03;3.95;;;;;;;10.17;53.16;101857.44;5034139;28;20057;-70
2023/04/27 09:38:57;;;;;;;13.40;4.03;;;;;;;10.27;52.11;101864.16;5034484;28;20192;-71
2023/04/27 09:41:24;;;;;;;7.35;3.83;;;;;;;10.29;49.41;101866.66;5034143;28;20108;-70
2023/04/27 09:43:50;;;;;;;9.60;4.20;;;;;;;10.35;51.46;101855.09;5026760;28;20040;-70
2023/04/27 09:46:15;;;;;;;6.03;4.50;;;;;;;10.36;51.22;101861.34;5029220;28;20025;-70
2023/04/27 09:48:41;;;;;;;7.47;4.30;;;;;;;10.37;52.90;101853.03;5032099;28;20083;-71
2023/04/27 09:51:07;;;;;;;8.88;4.10;;;;;;;10.48;52.79;101845.38;5034247;28;20029;-70
2023/04/27 09:53:55;;;;;;;8.80;4.13;;;;;;;10.67;54.49;101851.94;5030070;28;20037;-71
2023/04/27 09:56:30;;;;;;;9.25;4.72;;;;;;;10.77;51.27;101853.22;5027441;28;20136;-71
2023/04/27 09:59:22;;;;;;;9.00;4.93;;;;;;;10.80;51.76;101846.56;5034162;28;20067;-71
2023/04/27 10:01:54;;;;;;;11.38;5.03;;;;;;;10.84;50.09;101838.88;5029542;28;20112;-71
2023/04/27 10:04:38;;;;;;;8.48;4.53;;;;;;;10.94;52.29;101844.75;5017197;28;20132;-71
2023/04/27 10:07:08;;;;;;;7.53;4.88;;;;;;;11.00;52.00;101846.66;5033977;28;20083;-71
2023/04/27 10:09:36;;;;;;;9.35;4.72;;;;;;;11.10;51.46;101841.69;5032310;28;20057;-71
2023/04/27 10:12:20;;;;;;;8.75;4.35;;;;;;;11.17;52.00;101834.41;5033087;28;20056;-71
2023/04/27 10:14:50;;;;;;;9.15;5.78;;;;;;;11.16;49.44;101842.75;5034032;28;20409;-72
2023/04/27 10:17:16;;;;;;;8.93;4.55;;;;;;;11.13;50.25;101838.56;5030765;28;20032;-71
2023/04/27 10:19:53;;;;;;;6.22;4.38;;;;;;;11.19;49.77;101842.34;5027223;28;20025;-72
2023/04/27 10:22:19;;;;;;;9.05;5.10;;;;;;;11.16;48.19;101846.28;5015277;28;20493;-72
2023/04/27 10:24:48;;;;;;;7.57;5.10;;;;;;;11.21;47.50;101847.56;5032430;28;20025;-71
2023/04/27 10:27:18;;;;;;;9.15;4.75;;;;;;;11.29;50.57;101855.47;5031054;28;20047;-74
2023/04/27 10:29:45;;;;;;;7.10;4.90;;;;;;;11.31;50.75;101858.84;5030393;28;20473;-72
2023/04/27 10:32:17;;;;;;;8.35;4.65;;;;;;;11.28;49.57;101853.81;5031393;28;20053;-71
2023/04/27 10:34:46;;;;;;;5.68;4.75;;;;;;;11.31;49.55;101848.81;5030681;28;20550;-71
2023/04/27 10:37:11;;;;;;;8.50;5.05;;;;;;;11.43;48.88;101845.47;5032507;28;20108;-72
2023/04/27 10:39:38;;;;;;;12.90;5.28;;;;;;;11.40;49.17;101835.91;5033297;28;20496;-71
2023/04/27 10:42:04;;;;;;;7.75;4.50;;;;;;;11.41;47.28;101834.84;5034061;28;20029;-73
2023/04/27 10:44:31;;;;;;;8.35;4.53;;;;;;;11.47;46.64;101836.75;5033440;28;20051;-71
2023/04/27 10:47:02;;;;;;;8.25;4.50;;;;;;;11.48;46.68;101835.69;5032752;28;20104;-71
2023/04/27 10:49:31;;;;;;;14.50;4.55;;;;;;;11.50;44.63;101824.66;5031309;28;20059;-75
2023/04/27 10:51:58;;;;;;;13.70;4.90;;;;;;;11.49;45.91;101823.00;5033321;28;20034;-71
2023/04/27 10:54:27;;;;;;;9.40;4.85;;;;;;;11.46;46.08;101826.97;5026390;28;20465;-70
2023/04/27 10:56:54;;;;;;;7.70;4.50;;;;;;;11.39;45.93;101826.09;5018446;28;20041;-71
2023/04/27 10:59:20;;;;;;;9.73;5.18;;;;;;;11.41;45.67;101821.31;5031425;28;20412;-70
2023/04/27 11:01:48;;;;;;;10.55;5.25;;;;;;;11.49;45.74;101812.16;5030534;28;20026;-71
2023/04/27 11:04:14;;;;;;;10.55;5.13;;;;;;;11.51;45.47;101810.06;5027998;28;20132;-72
2023/04/27 11:06:44;;;;;;;10.43;4.93;;;;;;;11.54;44.41;101809.66;5026979;28;20116;-70
2023/04/27 11:09:10;;;;;;;6.25;4.80;;;;;;;11.58;45.04;101802.78;5031894;28;20124;-71
2023/04/27 11:11:35;;;;;;;6.75;4.75;;;;;;;11.59;44.55;101800.91;5030438;28;20108;-72
2023/04/27 11:14:02;;;;;;;6.90;4.53;;;;;;;11.63;42.83;101796.72;5032790;28;20041;-71
2023/04/27 11:16:28;;;;;;;8.52;5.13;;;;;;;11.72;46.08;101794.66;5031701;28;20033;-72
2023/04/27 11:18:53;;;;;;;6.28;4.88;;;;;;;11.80;44.89;101795.25;5027130;28;20022;-72
2023/04/27 11:21:20;;;;;;;11.13;5.20;;;;;;;11.86;46.14;101801.72;5031636;28;20056;-73
2023/04/27 11:23:46;;;;;;;7.22;5.22;;;;;;;12.00;45.12;101794.41;5045094;28;20025;-73
2023/04/27 11:26:16;;;;;;;9.27;5.78;;;;;;;12.04;45.30;101790.25;5029529;28;20088;-73
2023/04/27 11:29:08;;;;;;;9.07;5.18;;;;;;;12.19;45.66;101798.16;5032648;28;20037;-73
2023/04/27 11:31:48;;;;;;;13.20;5.53;;;;;;;12.39;44.22;101795.38;5015635;28;20088;-80
2023/04/27 11:34:25;;;;;;;7.68;5.53;;;;;;;12.35;45.10;101791.41;5021456;28;20033;-75
2023/04/27 11:37:02;;;;;;;6.45;4.97;;;;;;;12.38;43.90;101778.25;5031467;28;20100;-72
2023/04/27 11:39:31;;;;;;;10.20;5.50;;;;;;;12.64;43.23;101789.25;5032413;28;20053;-72
2023/04/27 11:41:56;;;;;;;11.02;4.88;;;;;;;12.53;42.37;101780.72;5032498;28;20033;-72
2023/04/27 11:44:26;;;;;;;9.70;4.97;;;;;;;12.52;42.59;101792.59;5031148;28;20129;-72
2023/04/27 11:46:54;;;;;;;8.25;5.00;;;;;;;12.61;40.45;101778.81;5032327;28;20033;-77
2023/04/27 11:49:20;;;;;;;10.13;5.18;;;;;;;12.69;43.10;101778.53;5018818;28;20136;-72
2023/04/27 11:51:46;;;;;;;8.95;5.03;;;;;;;12.68;41.97;101777.72;5022264;28;20035;-72
2023/04/27 11:54:14;;;;;;;8.23;4.88;;;;;;;12.70;42.17;101772.91;5030994;28;20038;-73
2023/04/27 11:56:41;;;;;;;7.53;5.43;;;;;;;12.84;42.91;101780.97;5031107;28;20029;-75
2023/04/27 11:59:19;;;;;;;11.88;4.80;;;;;;;12.84;40.05;101779.09;5032537;28;20029;-72
2023/04/27 12:01:44;;;;;;;6.65;4.60;;;;;;;12.87;39.16;101773.22;5024385;28;20025;-72
2023/04/27 12:04:09;;;;;;;11.50;5.88;;;;;;;13.03;40.14;101773.75;5030350;28;20064;-71
2023/04/27 12:06:36;;;;;;;12.10;7.68;;;;;;;13.17;40.30;101769.09;5029773;28;20030;-73
2023/04/27 12:09:02;;;;;;;9.13;5.22;;;;;;;13.35;40.12;101771.06;5032212;28;20061;-72
2023/04/27 12:11:27;;;;;;;8.02;4.88;;;;;;;13.33;38.92;101773.13;5032086;28;20061;-73
2023/04/27 12:13:53;;;;;;;10.00;4.93;;;;;;;13.30;38.83;101764.38;5012814;28;20080;-71
2023/04/27 12:16:20;;;;;;;7.15;4.85;;;;;;;13.44;39.42;101765.13;5012448;28;20036;-71
2023/04/27 12:18:47;;;;;;;7.18;4.70;;;;;;;13.55;40.51;101760.84;5017952;28;20037;-71
2023/04/27 12:21:13;;;;;;;8.07;5.25;;;;;;;13.70;41.44;101757.78;5030377;28;20033;-72
2023/04/27 12:23:38;;;;;;;5.93;4.70;;;;;;;13.64;38.55;101758.69;5031789;28;20026;-72
2023/04/27 12:26:04;;;;;;;8.75;5.03;;;;;;;13.82;38.90;101749.72;5030974;28;20029;-70
2023/04/27 12:47:49;;;;;;;12.05;6.03;;;;;;;14.57;37.99;101734.19;5108581;27;20505;-70
2023/04/27 12:50:14;;;;;;;8.02;5.13;;;;;;;14.41;38.01;101730.22;5093658;28;20403;-72
2023/04/27 12:52:40;;;;;;;11.57;5.05;;;;;;;14.47;40.08;101729.31;5088585;28;20025;-73
2023/04/27 12:55:06;;;;;;;8.07;5.10;;;;;;;14.42;39.06;101726.41;5088281;28;20028;-73
2023/04/27 12:57:32;;;;;;;10.55;5.38;;;;;;;14.41;39.84;101727.50;5088695;28;20348;-72
2023/04/27 13:00:00;;;;;;;10.32;5.88;;;;;;;14.49;38.97;101727.19;5088757;28;20089;-74
2023/04/27 13:02:25;;;;;;;10.00;5.10;;;;;;;14.41;37.61;101730.22;5087454;28;20532;-72
2023/04/27 13:04:51;;;;;;;15.02;5.60;;;;;;;14.33;37.57;101724.03;5088542;28;20063;-72
2023/04/27 13:07:16;;;;;;;11.50;5.22;;;;;;;14.27;37.62;101724.94;5098935;28;20030;-71
2023/04/27 13:09:42;;;;;;;7.55;4.78;;;;;;;14.31;38.36;101726.16;5097360;28;20115;-71
2023/04/27 13:12:07;;;;;;;9.05;5.18;;;;;;;14.36;38.34;101712.69;5089726;28;20103;-73
2023/04/27 13:14:33;;;;;;;9.60;5.95;;;;;;;14.42;40.13;101710.94;5068852;28;20021;-74
2023/04/27 13:16:58;;;;;;;9.77;6.07;;;;;;;14.50;37.88;101720.69;5069443;28;20527;-74
2023/04/27 13:19:24;;;;;;;11.73;5.72;;;;;;;14.62;37.90;101718.84;5068762;28;20063;-72
2023/04/27 13:21:49;;;;;;;7.72;5.85;;;;;;;14.54;35.76;101713.72;5089390;28;20383;-74
2023/04/27 13:24:16;;;;;;;8.77;6.25;;;;;;;14.46;36.78;101708.56;5088144;28;20024;-73
2023/04/27 13:26:41;;;;;;;11.38;5.30;;;;;;;14.43;38.04;101698.16;5089151;28;20051;-72
2023/04/27 13:29:07;;;;;;;24.45;7.15;;;;;;;14.41;37.25;101694.81;5088554;28;20028;-73
2023/04/27 13:31:32;;;;;;;11.50;5.35;;;;;;;14.33;37.42;101695.97;5068474;28;20060;-72
2023/04/27 13:33:58;;;;;;;21.63;6.13;;;;;;;14.33;36.76;101683.19;5067769;28;20029;-74
2023/04/27 13:36:23;;;;;;;11.05;5.78;;;;;;;14.47;36.77;101685.75;5070594;28;20028;-72
2023/04/27 13:38:49;;;;;;;9.52;6.75;;;;;;;14.49;37.89;101687.19;5089111;28;20036;-73
2023/04/27 13:41:21;;;;;;;11.75;5.65;;;;;;;14.65;38.12;101684.88;5089045;28;20024;-73
2023/04/27 13:43:46;;;;;;;9.48;5.50;;;;;;;14.64;36.81;101680.50;5088879;28;20024;-72
2023/04/27 13:46:12;;;;;;;9.30;5.40;;;;;;;14.69;37.51;101678.75;5086920;28;20523;-73
2023/04/27 13:48:37;;;;;;;10.88;5.20;;;;;;;14.74;39.01;101677.22;5080117;28;20037;-73
2023/04/27 13:51:03;;;;;;;5.85;4.90;;;;;;;14.76;37.96;101666.91;5068020;28;20371;-73
2023/04/27 13:53:28;;;;;;;9.80;5.28;;;;;;;14.67;37.81;101669.97;5067470;28;20025;-73
2023/04/27 13:55:55;;;;;;;10.40;5.18;;;;;;;14.77;38.92;101663.94;5068430;28;20074;-73
2023/04/27 13:58:20;;;;;;;12.75;5.40;;;;;;;14.57;36.48;101669.69;5058598;28;20040;-74
2023/04/27 14:00:47;;;;;;;6.68;5.00;;;;;;;14.52;37.26;101651.31;5057494;28;20032;-73
2023/04/27 14:03:14;;;;;;;9.00;5.40;;;;;;;14.47;42.68;101653.88;5070444;28;20052;-74
2023/04/27 14:05:44;;;;;;;11.27;5.15;;;;;;;14.57;40.12;101652.47;5055027;28;20025;-77
2023/04/27 14:08:10;;;;;;;9.57;5.07;;;;;;;14.60;39.86;101652.88;5053810;28;20025;-72
2023/04/27 14:10:38;;;;;;;10.75;5.10;;;;;;;14.52;37.30;101650.47;5054845;28;20041;-73
2023/04/27 14:13:06;;;;;;;7.72;5.43;;;;;;;14.54;38.62;101643.72;5055134;28;20528;-76
2023/04/27 14:15:36;;;;;;;8.93;5.05;;;;;;;14.67;37.22;101636.44;5054638;28;20028;-73
2023/04/27 14:18:08;;;;;;;8.35;4.40;;;;;;;14.72;38.30;101639.31;5063439;28;20028;-72
2023/04/27 14:20:34;;;;;;;10.48;4.93;;;;;;;14.85;38.50;101632.81;5072313;28;20091;-73
2023/04/27 14:23:00;;;;;;;8.63;4.40;;;;;;;14.87;37.10;101628.78;5071924;28;20432;-72
2023/04/27 14:25:31;;;;;;;10.38;5.30;;;;;;;14.97;36.56;101619.22;5034816;28;20033;-72
2023/04/27 14:27:56;;;;;;;6.05;4.90;;;;;;;15.06;36.34;101632.22;5034662;28;20033;-72
2023/04/27 14:30:22;;;;;;;10.88;5.10;;;;;;;14.97;35.50;101630.09;5034841;28;20422;-72
2023/04/27 14:32:47;;;;;;;12.20;4.57;;;;;;;15.01;38.61;101623.94;5045306;28;20029;-72
2023/04/27 14:35:12;;;;;;;9.65;5.03;;;;;;;15.09;37.29;101616.50;5066589;28;20029;-72
2023/04/27 14:37:38;;;;;;;12.38;5.03;;;;;;;15.37;35.62;101619.34;5072442;28;20040;-70
2023/04/27 14:40:05;;;;;;;6.35;4.80;;;;;;;15.37;34.47;101627.50;5050837;28;20036;-70
2023/04/27 14:42:31;;;;;;;7.55;5.18;;;;;;;15.52;35.77;101609.81;5052369;28;20033;-75
2023/04/27 14:44:56;;;;;;;8.85;5.85;;;;;;;15.56;34.66;101611.00;5054242;28;20052;-71
2023/04/27 14:47:21;;;;;;;11.57;5.40;;;;;;;15.62;34.93;101588.22;5054404;28;20045;-70
2023/04/27 14:49:47;;;;;;;10.65;5.22;;;;;;;15.54;33.75;101588.59;5063751;28;20037;-71
2023/04/27 14:52:12;;;;;;;23.52;6.10;;;;;;;15.50;33.94;101579.22;5073237;28;20040;-71
2023/04/27 14:54:38;;;;;;;10.35;5.80;;;;;;;15.53;35.10;101584.19;5057332;28;20395;-69
2023/04/27 14:57:03;;;;;;;7.38;4.75;;;;;;;15.51;34.34;101584.44;5051829;28;20037;-71
2023/04/27 14:59:29;;;;;;;8.07;5.40;;;;;;;15.44;34.30;101585.66;5061924;28;20457;-71
2023/04/27 15:01:54;;;;;;;10.43;5.40;;;;;;;15.42;34.69;101594.06;5055539;28;20085;-71
2023/04/27 15:04:19;;;;;;;12.68;5.90;;;;;;;15.35;35.39;101591.47;5070022;28;20036;-71
2023/04/27 15:06:45;;;;;;;9.60;6.40;;;;;;;15.33;35.77;101598.22;5058960;28;20025;-71
2023/04/27 15:09:11;;;;;;;9.32;5.15;;;;;;;15.34;35.78;101595.25;5072028;28;20032;-70
2023/04/27 15:11:36;;;;;;;9.50;5.50;;;;;;;15.33;36.68;101609.13;5037121;28;20033;-72
2023/04/27 15:14:01;;;;;;;11.50;5.38;;;;;;;15.18;35.13;101593.25;5068686;28;20044;-72
2023/04/27 15:16:27;;;;;;;7.43;5.97;;;;;;;14.98;36.16;101599.06;5072467;28;20032;-72
2023/04/27 15:18:52;;;;;;;37.80;7.47;;;;;;;14.78;37.28;101599.38;5073289;28;20028;-71
2023/04/27 15:21:18;;;;;;;9.15;6.53;;;;;;;14.65;37.13;101601.25;5073424;28;20025;-71
2023/04/27 15:23:48;;;;;;;13.82;7.00;;;;;;;14.56;36.52;101590.94;5067408;28;20479;-71
2023/04/27 15:26:15;;;;;;;10.75;6.47;;;;;;;14.48;36.40;101597.53;5067681;28;20029;-71
2023/04/27 15:28:41;;;;;;;10.23;6.28;;;;;;;14.40;36.24;101598.66;5064737;28;20047;-72
2023/04/27 15:31:07;;;;;;;9.77;5.68;;;;;;;14.31;36.96;101592.75;5054796;28;20033;-70
2023/04/27 15:33:32;;;;;;;9.45;6.22;;;;;;;14.23;37.64;101593.06;5052212;28;20017;-71
2023/04/27 15:35:58;;;;;;;17.20;7.18;;;;;;;14.11;36.85;101595.72;5052058;28;20017;-71
2023/04/27 15:38:23;;;;;;;10.70;6.68;;;;;;;14.00;37.34;101591.91;5062388;28;20434;-71
2023/04/27 15:40:48;;;;;;;9.75;6.20;;;;;;;13.95;40.53;101589.06;5062378;28;20033;-72
2023/04/27 15:43:14;;;;;;;11.48;7.50;;;;;;;13.97;38.30;101588.81;5055699;28;20025;-72
2023/04/27 15:45:40;;;;;;;13.48;7.38;;;;;;;13.92;38.95;101581.34;5061366;28;20029;-72
2023/04/27 15:48:06;;;;;;;10.40;5.82;;;;;;;13.84;39.45;101573.50;5051008;28;20380;-73
2023/04/27 15:50:31;;;;;;;9.57;6.88;;;;;;;13.84;39.57;101565.31;5052114;28;20032;-72
2023/04/27 15:52:57;;;;;;;12.32;6.93;;;;;;;13.81;39.22;101563.06;5072929;28;20032;-71
2023/04/27 15:55:22;;;;;;;9.50;6.25;;;;;;;13.80;38.41;101566.88;5072817;28;20103;-72
2023/04/27 15:57:47;;;;;;;10.07;6.68;;;;;;;13.82;38.76;101570.19;5058019;28;20037;-72
2023/04/27 16:00:15;;;;;;;13.05;6.55;;;;;;;13.77;38.54;101564.59;5050346;28;20032;-71
